Aviation Digital Data Service (ADDS)

Output produced by METARs form (1502 UTC 30 July 2016)
found at http://aviationweather.gov/adds/metars/
 
KBHB 301120Z 3012/3112 36006KT P6SM SCT250 
     FM301700 27004KT P6SM SCT100 
     FM310900 01004KT P6SM SCT250